Time;durP1;ratioP1;P1;durP2;ratioP2;P2;SDS_P1;SDS_P2;PMS_P1;PMS_P2;Temp;Humidity;BMP_temperature;BMP_pressure;BME280_temperature;BME280_humidity;BME280_pressure;Samples;Min_cycle;Max_cycle;Signal;HPM_P1;HPM_P2
2021/11/05 00:00:19;;;;;;;;;;;;;;;;;;5018883;28;19920;-84
2021/11/05 00:02:44;;;;;;;;;;;;;;;;;;5031679;28;19917;-84
2021/11/05 00:05:09;;;;;;;;;;;;;;;;;;5048492;28;20004;-83
2021/11/05 00:07:35;;;;;;;;;;;;;;;;;;5031962;28;19913;-84
2021/11/05 00:10:00;;;;;;;;;;;;;;;;;;5031877;28;19917;-84
2021/11/05 00:12:26;;;;;;;;;;;;;;;;;;5024776;28;19960;-83
2021/11/05 00:14:51;;;;;;;;;;;;;;;;;;4998749;28;20271;-84
2021/11/05 00:17:16;;;;;;;;;;;;;;;;;;5015582;28;19923;-84
2021/11/05 00:19:42;;;;;;;;;;;;;;;;;;5031513;28;19921;-84
2021/11/05 00:22:07;;;;;;;;;;;;;;;;;;4999064;28;20379;-84
2021/11/05 00:24:33;;;;;;;;;;;;;;;;;;4998629;28;19947;-84
2021/11/05 00:26:58;;;;;;;;;;;;;;;;;;5015035;28;19917;-84
2021/11/05 00:29:23;;;;;;;;;;;;;;;;;;5014889;28;20382;-84
2021/11/05 00:31:48;;;;;;;;;;;;;;;;;;5018044;28;19913;-84
2021/11/05 00:34:17;;;;;;;;;;;;;;;;;;5018312;28;19913;-84
2021/11/05 00:36:43;;;;;;;;;;;;;;;;;;5035483;28;19917;-83
2021/11/05 00:39:08;;;;;;;;;;;;;;;;;;5051190;28;19919;-84
2021/11/05 00:41:34;;;;;;;;;;;;;;;;;;5017946;28;19935;-84
2021/11/05 00:43:59;;;;;;;;;;;;;;;;;;5018374;28;20430;-84
2021/11/05 00:46:24;;;;;;;;;;;;;;;;;;5017922;28;19917;-84
2021/11/05 00:48:49;;;;;;;;;;;;;;;;;;5017868;28;19912;-82
2021/11/05 00:51:15;;;;;;;;;;;;;;;;;;5017945;28;19921;-82
2021/11/05 00:53:40;;;;;;;;;;;;;;;;;;5017573;28;19970;-82
2021/11/05 00:56:05;;;;;;;;;;;;;;;;;;5034225;28;19913;-81
2021/11/05 00:58:30;;;;;;;;;;;;;;;;;;5034446;28;19912;-82
2021/11/05 01:00:56;;;;;;;;;;;;;;;;;;5017779;28;19913;-82
2021/11/05 01:03:21;;;;;;;;;;;;;;;;;;5051221;28;19919;-82
2021/11/05 01:05:46;;;;;;;;;;;;;;;;;;5014219;28;19928;-81
2021/11/05 01:08:12;;;;;;;;;;;;;;;;;;5030741;28;19963;-81
2021/11/05 01:10:38;;;;;;;;;;;;;;;;;;5030862;28;20367;-82
2021/11/05 01:13:03;;;;;;;;;;;;;;;;;;5014183;28;20318;-81
2021/11/05 01:15:29;;;;;;;;;;;;;;;;;;5014262;28;20268;-81
2021/11/05 01:17:54;;;;;;;;;;;;;;;;;;5030853;28;19939;-81
2021/11/05 01:20:19;;;;;;;;;;;;;;;;;;5014341;28;19967;-81
2021/11/05 01:22:44;;;;;;;;;;;;;;;;;;5014251;28;20387;-81
2021/11/05 01:25:11;;;;;;;;;;;;;;;;;;5014170;28;20383;-81
2021/11/05 01:27:36;;;;;;;;;;;;;;;;;;5030803;28;20278;-81
2021/11/05 01:30:02;;;;;;;;;;;;;;;;;;5017520;28;19917;-81
2021/11/05 01:32:28;;;;;;;;;;;;;;;;;;5034088;28;19917;-81
2021/11/05 01:34:53;;;;;;;;;;;;;;;;;;5033953;28;20386;-81
2021/11/05 01:37:18;;;;;;;;;;;;;;;;;;5017618;28;19912;-82
2021/11/05 01:39:43;;;;;;;;;;;;;;;;;;5020757;28;19913;-81
2021/11/05 01:42:09;;;;;;;;;;;;;;;;;;5037828;28;19912;-81
2021/11/05 01:44:34;;;;;;;;;;;;;;;;;;5038029;28;19967;-81
2021/11/05 01:47:02;;;;;;;;;;;;;;;;;;5037611;28;19913;-81
2021/11/05 01:49:27;;;;;;;;;;;;;;;;;;5021453;28;19921;-81
2021/11/05 01:51:53;;;;;;;;;;;;;;;;;;5037782;28;19927;-81
2021/11/05 01:54:18;;;;;;;;;;;;;;;;;;5037970;28;19997;-81
2021/11/05 01:56:44;;;;;;;;;;;;;;;;;;5020998;28;19917;-81
2021/11/05 01:59:21;;;;;;;;;;;;;;;;;;5037322;28;19962;-81
2021/11/05 02:01:47;;;;;;;;;;;;;;;;;;5050197;28;19913;-81
2021/11/05 02:04:12;;;;;;;;;;;;;;;;;;5033729;28;19944;-82
2021/11/05 02:06:37;;;;;;;;;;;;;;;;;;5034239;28;20286;-81
2021/11/05 02:09:03;;;;;;;;;;;;;;;;;;5017533;28;19940;-81
2021/11/05 02:11:28;;;;;;;;;;;;;;;;;;5034111;28;19913;-81
2021/11/05 02:13:54;;;;;;;;;;;;;;;;;;5001063;28;19909;-81
2021/11/05 02:16:20;;;;;;;;;;;;;;;;;;5017833;28;19919;-81
2021/11/05 02:18:45;;;;;;;;;;;;;;;;;;5000571;28;20371;-81
2021/11/05 02:21:11;;;;;;;;;;;;;;;;;;5034020;28;19925;-81
2021/11/05 02:23:36;;;;;;;;;;;;;;;;;;5017339;28;19909;-81
2021/11/05 02:26:02;;;;;;;;;;;;;;;;;;5017102;28;19966;-81
2021/11/05 02:28:28;;;;;;;;;;;;;;;;;;5033715;28;20055;-81
2021/11/05 02:30:53;;;;;;;;;;;;;;;;;;5028936;28;19951;-82
2021/11/05 02:33:18;;;;;;;;;;;;;;;;;;5036876;28;19913;-81
2021/11/05 02:35:44;;;;;;;;;;;;;;;;;;5053846;28;19913;-81
2021/11/05 02:38:09;;;;;;;;;;;;;;;;;;5020577;28;20318;-81
2021/11/05 02:40:34;;;;;;;;;;;;;;;;;;5053928;28;19913;-81
2021/11/05 02:43:01;;;;;;;;;;;;;;;;;;5053100;28;19924;-81
2021/11/05 02:45:26;;;;;;;;;;;;;;;;;;5037256;28;19913;-81
2021/11/05 02:47:53;;;;;;;;;;;;;;;;;;5036532;28;19917;-81
2021/11/05 02:50:18;;;;;;;;;;;;;;;;;;5019014;28;20274;-81
2021/11/05 02:52:43;;;;;;;;;;;;;;;;;;5036660;28;19917;-81
2021/11/05 02:55:09;;;;;;;;;;;;;;;;;;5015520;28;19917;-81
2021/11/05 02:57:34;;;;;;;;;;;;;;;;;;5049884;28;20008;-81
2021/11/05 02:59:59;;;;;;;;;;;;;;;;;;5016819;28;20347;-81
2021/11/05 03:02:25;;;;;;;;;;;;;;;;;;5052029;28;19925;-82
2021/11/05 03:04:50;;;;;;;;;;;;;;;;;;5052637;28;19943;-81
2021/11/05 03:07:16;;;;;;;;;;;;;;;;;;5053208;28;19942;-82
2021/11/05 03:09:41;;;;;;;;;;;;;;;;;;5036558;28;19927;-81
2021/11/05 03:12:07;;;;;;;;;;;;;;;;;;5052744;28;19972;-81
2021/11/05 03:14:32;;;;;;;;;;;;;;;;;;5036148;28;19917;-81
2021/11/05 03:16:58;;;;;;;;;;;;;;;;;;5052400;28;19913;-81
2021/11/05 03:19:23;;;;;;;;;;;;;;;;;;5036060;28;19920;-81
2021/11/05 03:21:49;;;;;;;;;;;;;;;;;;5036283;28;19917;-81
2021/11/05 03:24:14;;;;;;;;;;;;;;;;;;5052822;28;19919;-81
2021/11/05 03:26:39;;;;;;;;;;;;;;;;;;5035561;28;19943;-81
2021/11/05 03:29:05;;;;;;;;;;;;;;;;;;5052228;28;19951;-81
2021/11/05 03:31:30;;;;;;;;;;;;;;;;;;5052166;28;20137;-81
2021/11/05 03:33:56;;;;;;;;;;;;;;;;;;5052740;28;19912;-81
2021/11/05 03:36:21;;;;;;;;;;;;;;;;;;5052631;28;19913;-81
2021/11/05 03:38:46;;;;;;;;;;;;;;;;;;5052612;28;19917;-82
2021/11/05 03:41:12;;;;;;;;;;;;;;;;;;5052439;28;20015;-81
2021/11/05 03:43:37;;;;;;;;;;;;;;;;;;5052121;28;19927;-81
2021/11/05 03:46:04;;;;;;;;;;;;;;;;;;5018793;28;20011;-81
2021/11/05 03:48:34;;;;;;;;;;;;;;;;;;5031305;28;19955;-82
2021/11/05 03:50:59;;;;;;;;;;;;;;;;;;5048457;28;19917;-81
2021/11/05 03:53:25;;;;;;;;;;;;;;;;;;5015550;28;19917;-81
2021/11/05 03:55:50;;;;;;;;;;;;;;;;;;5048424;28;20004;-81
2021/11/05 03:58:15;;;;;;;;;;;;;;;;;;5048723;28;19935;-81
2021/11/05 04:00:40;;;;;;;;;;;;;;;;;;5015076;28;19917;-81
2021/11/05 04:03:06;;;;;;;;;;;;;;;;;;5046837;28;20329;-81
2021/11/05 04:05:31;;;;;;;;;;;;;;;;;;5051639;28;20378;-81
2021/11/05 04:07:57;;;;;;;;;;;;;;;;;;5052014;28;19931;-81
2021/11/05 04:10:22;;;;;;;;;;;;;;;;;;5051872;28;19975;-81
2021/11/05 04:12:47;;;;;;;;;;;;;;;;;;5035406;28;19956;-81
2021/11/05 04:15:13;;;;;;;;;;;;;;;;;;5051432;28;19920;-81
2021/11/05 04:17:38;;;;;;;;;;;;;;;;;;5051628;28;19919;-81
2021/11/05 04:20:04;;;;;;;;;;;;;;;;;;5051507;28;19927;-81
2021/11/05 04:22:29;;;;;;;;;;;;;;;;;;5034822;28;19917;-81
2021/11/05 04:24:54;;;;;;;;;;;;;;;;;;5051176;28;19920;-81
2021/11/05 04:27:20;;;;;;;;;;;;;;;;;;5051333;28;19913;-81
2021/11/05 04:29:46;;;;;;;;;;;;;;;;;;5051155;28;19990;-81
2021/11/05 04:32:11;;;;;;;;;;;;;;;;;;5035077;28;19978;-81
2021/11/05 04:34:37;;;;;;;;;;;;;;;;;;5034944;28;20359;-81
2021/11/05 04:37:02;;;;;;;;;;;;;;;;;;5034979;28;19923;-81
2021/11/05 04:39:28;;;;;;;;;;;;;;;;;;5018264;28;19913;-82
2021/11/05 04:41:53;;;;;;;;;;;;;;;;;;5017461;28;19917;-81
2021/11/05 04:44:18;;;;;;;;;;;;;;;;;;5031031;28;19956;-81
2021/11/05 04:46:43;;;;;;;;;;;;;;;;;;5029867;28;20394;-81
2021/11/05 04:49:09;;;;;;;;;;;;;;;;;;5034431;28;19951;-81
2021/11/05 04:51:34;;;;;;;;;;;;;;;;;;5034578;28;20298;-81
2021/11/05 04:53:59;;;;;;;;;;;;;;;;;;5018157;28;19920;-81
2021/11/05 04:56:25;;;;;;;;;;;;;;;;;;5033935;28;19963;-81
2021/11/05 04:58:50;;;;;;;;;;;;;;;;;;5034213;28;19956;-81
2021/11/05 05:01:15;;;;;;;;;;;;;;;;;;5034363;28;19919;-81
2021/11/05 05:03:41;;;;;;;;;;;;;;;;;;5034056;28;19917;-81
2021/11/05 05:06:06;;;;;;;;;;;;;;;;;;5051042;28;19913;-80
2021/11/05 05:08:31;;;;;;;;;;;;;;;;;;5051057;28;19912;-81
2021/11/05 05:10:56;;;;;;;;;;;;;;;;;;5033908;28;19924;-81
2021/11/05 05:13:22;;;;;;;;;;;;;;;;;;5049780;28;19917;-81
2021/11/05 05:15:49;;;;;;;;;;;;;;;;;;5050965;28;19967;-81
2021/11/05 05:18:15;;;;;;;;;;;;;;;;;;5050981;28;20374;-81
2021/11/05 05:20:42;;;;;;;;;;;;;;;;;;5050659;28;19922;-81
2021/11/05 05:23:07;;;;;;;;;;;;;;;;;;5050698;28;20068;-81
2021/11/05 05:25:32;;;;;;;;;;;;;;;;;;5050100;28;20436;-81
2021/11/05 05:27:58;;;;;;;;;;;;;;;;;;5050816;28;19913;-82
2021/11/05 05:30:23;;;;;;;;;;;;;;;;;;5050562;28;19913;-82
2021/11/05 05:32:49;;;;;;;;;;;;;;;;;;5017557;28;20363;-82
2021/11/05 05:35:14;;;;;;;;;;;;;;;;;;5017912;28;19913;-82
2021/11/05 05:37:40;;;;;;;;;;;;;;;;;;5013683;28;20397;-82
2021/11/05 05:40:05;;;;;;;;;;;;;;;;;;5014113;28;19913;-81
2021/11/05 05:42:31;;;;;;;;;;;;;;;;;;5013852;28;19917;-82
2021/11/05 05:44:56;;;;;;;;;;;;;;;;;;5014892;28;19913;-81
2021/11/05 05:47:21;;;;;;;;;;;;;;;;;;5017212;28;19917;-82
2021/11/05 05:49:49;;;;;;;;;;;;;;;;;;5033753;28;19996;-82
2021/11/05 05:52:15;;;;;;;;;;;;;;;;;;5017730;28;19951;-82
2021/11/05 05:54:41;;;;;;;;;;;;;;;;;;5033844;28;19999;-81
2021/11/05 05:57:06;;;;;;;;;;;;;;;;;;5016843;28;19960;-82
2021/11/05 05:59:32;;;;;;;;;;;;;;;;;;5033837;28;19917;-82
2021/11/05 06:01:57;;;;;;;;;;;;;;;;;;5017128;28;19952;-81
2021/11/05 06:04:26;;;;;;;;;;;;;;;;;;5050401;28;19924;-84
2021/11/05 06:06:51;;;;;;;;;;;;;;;;;;5033938;28;20015;-84
2021/11/05 06:09:16;;;;;;;;;;;;;;;;;;5050498;28;20016;-84
2021/11/05 06:11:41;;;;;;;;;;;;;;;;;;5050264;28;19923;-83
2021/11/05 06:14:07;;;;;;;;;;;;;;;;;;5050473;28;19917;-83
2021/11/05 06:16:32;;;;;;;;;;;;;;;;;;5050323;28;19917;-84
2021/11/05 06:18:59;;;;;;;;;;;;;;;;;;5049953;28;19920;-83
2021/11/05 06:21:26;;;;;;;;;;;;;;;;;;5050494;28;20015;-83
2021/11/05 06:23:51;;;;;;;;;;;;;;;;;;5050359;28;19916;-83
2021/11/05 06:26:17;;;;;;;;;;;;;;;;;;5053350;28;19913;-83
2021/11/05 06:28:42;;;;;;;;;;;;;;;;;;5053898;28;20310;-83
2021/11/05 06:31:07;;;;;;;;;;;;;;;;;;5045146;28;19924;-83
2021/11/05 06:33:33;;;;;;;;;;;;;;;;;;5017337;28;20007;-84
2021/11/05 06:35:58;;;;;;;;;;;;;;;;;;5033686;28;19917;-84
2021/11/05 06:38:24;;;;;;;;;;;;;;;;;;5017099;28;19975;-83
2021/11/05 06:40:49;;;;;;;;;;;;;;;;;;5016871;28;19913;-83
2021/11/05 06:43:15;;;;;;;;;;;;;;;;;;5017036;28;19913;-83
2021/11/05 06:45:40;;;;;;;;;;;;;;;;;;5019885;28;19938;-83
2021/11/05 06:48:06;;;;;;;;;;;;;;;;;;5035968;28;19916;-83
2021/11/05 06:50:32;;;;;;;;;;;;;;;;;;5034723;28;19921;-83
2021/11/05 06:52:57;;;;;;;;;;;;;;;;;;5005493;28;19928;-83
2021/11/05 06:55:23;;;;;;;;;;;;;;;;;;5019793;28;19920;-83
2021/11/05 06:57:48;;;;;;;;;;;;;;;;;;5036796;28;19913;-83
2021/11/05 07:00:14;;;;;;;;;;;;;;;;;;5020250;28;19919;-83
2021/11/05 07:02:41;;;;;;;;;;;;;;;;;;5036561;28;19913;-83
2021/11/05 07:05:10;;;;;;;;;;;;;;;;;;5052208;28;19921;-83
2021/11/05 07:07:36;;;;;;;;;;;;;;;;;;5019979;28;19924;-84
2021/11/05 07:10:02;;;;;;;;;;;;;;;;;;5053054;28;19992;-85
2021/11/05 07:12:28;;;;;;;;;;;;;;;;;;5052207;28;19960;-84
2021/11/05 07:14:53;;;;;;;;;;;;;;;;;;5050842;28;19921;-84
2021/11/05 07:17:19;;;;;;;;;;;;;;;;;;5031675;28;19917;-85
2021/11/05 07:19:44;;;;;;;;;;;;;;;;;;5033180;28;19940;-82
2021/11/05 07:22:10;;;;;;;;;;;;;;;;;;5034608;28;19955;-82
2021/11/05 07:24:39;;;;;;;;;;;;;;;;;;5033965;28;19920;-82
2021/11/05 07:27:04;;;;;;;;;;;;;;;;;;5033733;28;19931;-82
2021/11/05 07:29:31;;;;;;;;;;;;;;;;;;5015817;28;20019;-87
2021/11/05 07:31:57;;;;;;;;;;;;;;;;;;5036016;28;20008;-82
2021/11/05 07:34:23;;;;;;;;;;;;;;;;;;5035059;28;19944;-82
2021/11/05 07:36:48;;;;;;;;;;;;;;;;;;5048301;28;20260;-81
2021/11/05 07:39:14;;;;;;;;;;;;;;;;;;5017913;28;19925;-82
2021/11/05 07:41:39;;;;;;;;;;;;;;;;;;5032505;28;20007;-81
2021/11/05 07:44:04;;;;;;;;;;;;;;;;;;5006998;28;19917;-80
2021/11/05 07:46:30;;;;;;;;;;;;;;;;;;5018428;28;20075;-81
2021/11/05 07:48:55;;;;;;;;;;;;;;;;;;5049914;28;19917;-81
2021/11/05 07:51:20;;;;;;;;;;;;;;;;;;5034810;28;19925;-81
2021/11/05 07:53:48;;;;;;;;;;;;;;;;;;5016708;28;21373;-82
2021/11/05 07:56:14;;;;;;;;;;;;;;;;;;5033643;28;19917;-81
2021/11/05 07:58:39;;;;;;;;;;;;;;;;;;5045850;28;19913;-81
2021/11/05 08:01:05;;;;;;;;;;;;;;;;;;5018003;28;20025;-81
2021/11/05 08:03:30;;;;;;;;;;;;;;;;;;5031510;28;20437;-81
2021/11/05 08:05:56;;;;;;;;;;;;;;;;;;5050816;28;19912;-81
2021/11/05 08:08:21;;;;;;;;;;;;;;;;;;5033672;28;20367;-82
2021/11/05 08:10:46;;;;;;;;;;;;;;;;;;5047856;28;20371;-81
2021/11/05 08:13:13;;;;;;;;;;;;;;;;;;5034158;28;19987;-82
2021/11/05 08:15:38;;;;;;;;;;;;;;;;;;5034745;28;20379;-80
2021/11/05 08:18:04;;;;;;;;;;;;;;;;;;5051600;28;19917;-80
2021/11/05 08:20:29;;;;;;;;;;;;;;;;;;5051169;28;19924;-82
2021/11/05 08:22:55;;;;;;;;;;;;;;;;;;5050956;28;20341;-81
2021/11/05 08:25:21;;;;;;;;;;;;;;;;;;5015745;28;19917;-81
2021/11/05 08:27:46;;;;;;;;;;;;;;;;;;5031375;28;19917;-80
2021/11/05 08:30:13;;;;;;;;;;;;;;;;;;5032971;28;19924;-78
2021/11/05 08:32:39;;;;;;;;;;;;;;;;;;5049819;28;19917;-80
2021/11/05 08:35:05;;;;;;;;;;;;;;;;;;5050070;28;19924;-81
2021/11/05 08:37:30;;;;;;;;;;;;;;;;;;5046374;28;20351;-79
2021/11/05 08:39:55;;;;;;;;;;;;;;;;;;5052460;28;19978;-80
2021/11/05 08:42:20;;;;;;;;;;;;;;;;;;5050056;28;19966;-79
2021/11/05 08:44:46;;;;;;;;;;;;;;;;;;5053204;28;19955;-82
2021/11/05 08:47:11;;;;;;;;;;;;;;;;;;5035124;28;20003;-85
2021/11/05 08:49:36;;;;;;;;;;;;;;;;;;5048945;28;20389;-81
2021/11/05 08:52:02;;;;;;;;;;;;;;;;;;5030607;28;19925;-80
2021/11/05 08:54:27;;;;;;;;;;;;;;;;;;5045303;28;19928;-80
2021/11/05 08:56:52;;;;;;;;;;;;;;;;;;5026991;28;19971;-82
2021/11/05 08:59:18;;;;;;;;;;;;;;;;;;5049692;28;20299;-80
2021/11/05 09:01:43;;;;;;;;;;;;;;;;;;5041695;28;19917;-81
2021/11/05 09:04:10;;;;;;;;;;;;;;;;;;5046525;28;20329;-81
2021/11/05 09:06:36;;;;;;;;;;;;;;;;;;5049947;28;19913;-81
2021/11/05 09:09:01;;;;;;;;;;;;;;;;;;5029785;28;20306;-80
2021/11/05 09:11:29;;;;;;;;;;;;;;;;;;5032222;28;19917;-82
2021/11/05 09:13:55;;;;;;;;;;;;;;;;;;5030039;28;19920;-81
2021/11/05 09:16:20;;;;;;;;;;;;;;;;;;5048526;28;19924;-81
2021/11/05 09:18:46;;;;;;;;;;;;;;;;;;5028513;28;20275;-81
2021/11/05 09:21:11;;;;;;;;;;;;;;;;;;5024391;28;19971;-81
2021/11/05 09:23:37;;;;;;;;;;;;;;;;;;5041796;28;19912;-80
2021/11/05 09:26:02;;;;;;;;;;;;;;;;;;5033727;28;20278;-80
2021/11/05 09:28:28;;;;;;;;;;;;;;;;;;5034087;28;19917;-80
2021/11/05 09:30:53;;;;;;;;;;;;;;;;;;5050188;28;19913;-80
2021/11/05 09:33:19;;;;;;;;;;;;;;;;;;5032565;28;19916;-80
2021/11/05 09:35:45;;;;;;;;;;;;;;;;;;5017466;28;19913;-80
2021/11/05 09:38:11;;;;;;;;;;;;;;;;;;5051051;28;19966;-82
2021/11/05 09:40:36;;;;;;;;;;;;;;;;;;5050890;28;19962;-81
2021/11/05 09:43:02;;;;;;;;;;;;;;;;;;5017472;28;20437;-80
2021/11/05 09:45:31;;;;;;;;;;;;;;;;;;5035256;28;19916;-80
2021/11/05 09:47:56;;;;;;;;;;;;;;;;;;5017212;28;20248;-81
2021/11/05 09:50:22;;;;;;;;;;;;;;;;;;5026453;28;19921;-80
2021/11/05 09:52:47;;;;;;;;;;;;;;;;;;5025452;28;19967;-81
2021/11/05 09:55:13;;;;;;;;;;;;;;;;;;5050205;28;19934;-81
2021/11/05 09:57:38;;;;;;;;;;;;;;;;;;5050560;28;19920;-81
2021/11/05 10:00:05;;;;;;;;;;;;;;;;;;5052351;28;19920;-85
2021/11/05 10:02:30;;;;;;;;;;;;;;;;;;5037181;28;19948;-86
2021/11/05 10:04:58;;;;;;;;;;;;;;;;;;5021015;28;19963;-80
2021/11/05 10:07:23;;;;;;;;;;;;;;;;;;5038040;28;20383;-84
2021/11/05 10:09:52;;;;;;;;;;;;;;;;;;5037254;28;19959;-84
2021/11/05 10:12:18;;;;;;;;;;;;;;;;;;5032658;28;20021;-82
2021/11/05 10:14:44;;;;;;;;;;;;;;;;;;5034513;28;19920;-85
2021/11/05 10:17:10;;;;;;;;;;;;;;;;;;5034079;28;19913;-84
2021/11/05 10:19:50;;;;;;;;;;;;;;;;;;5018906;28;19924;-86
2021/11/05 10:22:31;;;;;;;;;;;;;;;;;;5018013;28;19924;-84
2021/11/05 10:25:14;;;;;;;;;;;;;;;;;;5034502;28;19913;-85
2021/11/05 10:27:39;;;;;;;;;;;;;;;;;;5020099;28;19939;-85
2021/11/05 10:30:05;;;;;;;;;;;;;;;;;;5021240;28;20383;-85
2021/11/05 10:32:30;;;;;;;;;;;;;;;;;;5020849;28;19913;-82
2021/11/05 10:34:56;;;;;;;;;;;;;;;;;;5020797;28;20282;-86
2021/11/05 10:37:29;;;;;;;;;;;;;;;;;;5036514;28;20051;-85
2021/11/05 10:39:56;;;;;;;;;;;;;;;;;;5020195;28;19980;-83
2021/11/05 10:42:34;;;;;;;;;;;;;;;;;;5020905;28;19999;-85
2021/11/05 10:45:16;;;;;;;;;;;;;;;;;;5020281;28;19958;-85
2021/11/05 10:47:54;;;;;;;;;;;;;;;;;;5018952;28;19935;-89
2021/11/05 10:50:23;;;;;;;;;;;;;;;;;;5051024;28;19928;-88
2021/11/05 10:53:01;;;;;;;;;;;;;;;;;;5041430;28;19925;-85
2021/11/05 10:55:47;;;;;;;;;;;;;;;;;;5020401;28;19921;-83
2021/11/05 10:58:16;;;;;;;;;;;;;;;;;;5053157;28;20433;-83
2021/11/05 11:00:43;;;;;;;;;;;;;;;;;;5019781;28;20342;-84
2021/11/05 11:03:25;;;;;;;;;;;;;;;;;;5019849;28;20396;-83
2021/11/05 11:05:51;;;;;;;;;;;;;;;;;;5052081;28;19917;-85
2021/11/05 11:08:17;;;;;;;;;;;;;;;;;;5032625;28;19970;-84
2021/11/05 11:10:42;;;;;;;;;;;;;;;;;;5017430;28;19920;-85
2021/11/05 11:13:26;;;;;;;;;;;;;;;;;;5052984;28;19921;-83
2021/11/05 11:15:52;;;;;;;;;;;;;;;;;;5034989;28;19921;-83
2021/11/05 11:18:17;;;;;;;;;;;;;;;;;;5048656;28;19920;-83
2021/11/05 11:20:43;;;;;;;;;;;;;;;;;;5048732;28;19920;-83
2021/11/05 11:23:08;;;;;;;;;;;;;;;;;;5018241;28;20004;-85
2021/11/05 11:25:34;;;;;;;;;;;;;;;;;;5031682;28;19913;-83
2021/11/05 11:27:59;;;;;;;;;;;;;;;;;;5040918;28;19917;-84
2021/11/05 11:30:25;;;;;;;;;;;;;;;;;;5052237;28;19912;-85
2021/11/05 11:32:51;;;;;;;;;;;;;;;;;;5036371;28;19913;-84
2021/11/05 11:35:17;;;;;;;;;;;;;;;;;;5050809;28;19924;-84
2021/11/05 11:37:42;;;;;;;;;;;;;;;;;;5052944;28;19923;-84
2021/11/05 11:40:08;;;;;;;;;;;;;;;;;;5019128;28;19921;-83
2021/11/05 11:42:33;;;;;;;;;;;;;;;;;;5035349;28;19921;-82
2021/11/05 11:45:00;;;;;;;;;;;;;;;;;;5051924;28;19970;-84
2021/11/05 11:47:25;;;;;;;;;;;;;;;;;;5018977;28;19913;-84
2021/11/05 11:49:51;;;;;;;;;;;;;;;;;;5050867;28;19974;-84
2021/11/05 11:52:16;;;;;;;;;;;;;;;;;;5018841;28;19974;-85
2021/11/05 11:54:43;;;;;;;;;;;;;;;;;;5035920;28;19913;-85
2021/11/05 11:57:10;;;;;;;;;;;;;;;;;;5028377;28;19963;-84
2021/11/05 11:59:37;;;;;;;;;;;;;;;;;;5034559;28;19917;-85
2021/11/05 12:02:22;;;;;;;;;;;;;;;;;;5035687;28;19986;-85
2021/11/05 12:04:48;;;;;;;;;;;;;;;;;;5015902;28;19963;-84
2021/11/05 12:07:15;;;;;;;;;;;;;;;;;;5026600;28;20379;-85
2021/11/05 12:09:41;;;;;;;;;;;;;;;;;;5015360;28;19913;-86
2021/11/05 12:12:22;;;;;;;;;;;;;;;;;;5015653;28;19962;-86
2021/11/05 12:15:00;;;;;;;;;;;;;;;;;;5021122;28;19912;-87
2021/11/05 12:17:30;;;;;;;;;;;;;;;;;;5042570;28;19956;-84
2021/11/05 12:20:02;;;;;;;;;;;;;;;;;;5017739;28;19970;-84
2021/11/05 12:22:27;;;;;;;;;;;;;;;;;;5034726;28;19921;-85
2021/11/05 12:24:53;;;;;;;;;;;;;;;;;;5017350;28;20368;-82
2021/11/05 12:27:25;;;;;;;;;;;;;;;;;;5051411;28;19920;-82
2021/11/05 12:29:51;;;;;;;;;;;;;;;;;;5018811;28;20428;-83
2021/11/05 12:32:16;;;;;;;;;;;;;;;;;;5051688;28;19977;-84
2021/11/05 12:35:03;;;;;;;;;;;;;;;;;;5052490;28;19921;-83
2021/11/05 12:37:42;;;;;;;;;;;;;;;;;;5052173;28;19952;-83
2021/11/05 12:40:34;;;;;;;;;;;;;;;;;;5051195;28;19917;-87
2021/11/05 12:43:02;;;;;;;;;;;;;;;;;;5033816;28;20371;-83
2021/11/05 12:45:49;;;;;;;;;;;;;;;;;;5034198;28;19917;-84
2021/11/05 12:48:14;;;;;;;;;;;;;;;;;;5034656;28;19916;-88
2021/11/05 12:50:41;;;;;;;;;;;;;;;;;;5018633;28;19959;-87
2021/11/05 12:53:08;;;;;;;;;;;;;;;;;;5035277;28;19984;-88
2021/11/05 12:55:43;;;;;;;;;;;;;;;;;;5018710;28;19917;-87
2021/11/05 12:58:10;;;;;;;;;;;;;;;;;;5018075;28;19959;-86
2021/11/05 13:00:40;;;;;;;;;;;;;;;;;;5018814;28;19913;-89
2021/11/05 13:03:09;;;;;;;;;;;;;;;;;;5015925;28;19924;-94
2021/11/05 13:05:35;;;;;;;;;;;;;;;;;;5019394;28;19951;-87
2021/11/05 13:08:09;;;;;;;;;;;;;;;;;;5051939;28;19913;-89
2021/11/05 13:10:35;;;;;;;;;;;;;;;;;;5052343;28;19956;-89
2021/11/05 13:13:03;;;;;;;;;;;;;;;;;;5052004;28;19962;-90
2021/11/05 13:15:47;;;;;;;;;;;;;;;;;;5051927;28;19917;-89
2021/11/05 13:18:15;;;;;;;;;;;;;;;;;;5052200;28;19921;-89
2021/11/05 13:20:43;;;;;;;;;;;;;;;;;;5034581;28;19916;-88
2021/11/05 13:23:12;;;;;;;;;;;;;;;;;;5018508;28;19925;-87
2021/11/05 13:25:42;;;;;;;;;;;;;;;;;;5018580;28;19912;-88
2021/11/05 13:28:14;;;;;;;;;;;;;;;;;;5035528;28;19960;-89
2021/11/05 13:30:46;;;;;;;;;;;;;;;;;;5019485;28;19913;-89
2021/11/05 13:33:18;;;;;;;;;;;;;;;;;;5035354;28;19916;-87
2021/11/05 13:35:49;;;;;;;;;;;;;;;;;;5021500;28;19924;-87
2021/11/05 13:38:16;;;;;;;;;;;;;;;;;;5038534;28;19961;-86
2021/11/05 13:40:47;;;;;;;;;;;;;;;;;;5021162;28;20298;-85
2021/11/05 13:43:14;;;;;;;;;;;;;;;;;;5054971;28;19916;-87
2021/11/05 13:46:05;;;;;;;;;;;;;;;;;;5054918;28;19966;-87
2021/11/05 13:48:34;;;;;;;;;;;;;;;;;;5052867;28;19913;-85
2021/11/05 13:51:10;;;;;;;;;;;;;;;;;;5020710;28;19916;-86
2021/11/05 13:53:44;;;;;;;;;;;;;;;;;;5038276;28;19925;-87
2021/11/05 13:56:11;;;;;;;;;;;;;;;;;;5054334;28;19912;-86
2021/11/05 13:58:36;;;;;;;;;;;;;;;;;;5054569;28;19916;-84
2021/11/05 14:01:01;;;;;;;;;;;;;;;;;;5055044;28;19923;-87
2021/11/05 14:03:27;;;;;;;;;;;;;;;;;;5054132;28;19924;-83
2021/11/05 14:05:53;;;;;;;;;;;;;;;;;;5036641;28;19931;-83
2021/11/05 14:08:18;;;;;;;;;;;;;;;;;;5030895;28;19916;-82
2021/11/05 14:10:51;;;;;;;;;;;;;;;;;;5053039;28;19916;-83
2021/11/05 14:13:16;;;;;;;;;;;;;;;;;;5053968;28;19920;-82
2021/11/05 14:15:42;;;;;;;;;;;;;;;;;;5054243;28;19917;-82
2021/11/05 14:18:11;;;;;;;;;;;;;;;;;;5054050;28;19917;-82
2021/11/05 14:20:37;;;;;;;;;;;;;;;;;;5053657;28;20388;-82
2021/11/05 14:23:02;;;;;;;;;;;;;;;;;;5053964;28;19966;-82
2021/11/05 14:25:28;;;;;;;;;;;;;;;;;;5036946;28;19964;-83
2021/11/05 14:27:53;;;;;;;;;;;;;;;;;;5053725;28;19916;-82
2021/11/05 14:30:20;;;;;;;;;;;;;;;;;;5034168;28;19971;-82
2021/11/05 14:32:48;;;;;;;;;;;;;;;;;;5017429;28;19920;-82
2021/11/05 14:35:15;;;;;;;;;;;;;;;;;;5033986;28;19979;-83
2021/11/05 14:37:40;;;;;;;;;;;;;;;;;;5017095;28;19913;-83
2021/11/05 14:40:19;;;;;;;;;;;;;;;;;;5034372;28;20423;-83
2021/11/05 14:42:44;;;;;;;;;;;;;;;;;;5053781;28;19913;-82
2021/11/05 14:45:20;;;;;;;;;;;;;;;;;;5020277;28;19913;-82
2021/11/05 14:47:45;;;;;;;;;;;;;;;;;;5053370;28;19919;-82
2021/11/05 14:50:11;;;;;;;;;;;;;;;;;;5036321;28;19917;-82
2021/11/05 14:52:54;;;;;;;;;;;;;;;;;;5036751;28;19917;-83
2021/11/05 14:55:20;;;;;;;;;;;;;;;;;;5036287;28;19948;-82
2021/11/05 14:57:48;;;;;;;;;;;;;;;;;;5036708;28;20311;-82
2021/11/05 15:00:21;;;;;;;;;;;;;;;;;;5037009;28;19966;-83
2021/11/05 15:02:46;;;;;;;;;;;;;;;;;;5016760;28;19913;-83
2021/11/05 15:05:18;;;;;;;;;;;;;;;;;;5016853;28;20023;-82
2021/11/05 15:07:49;;;;;;;;;;;;;;;;;;5016557;28;20374;-83
2021/11/05 15:10:16;;;;;;;;;;;;;;;;;;5033064;28;19917;-82
2021/11/05 15:12:42;;;;;;;;;;;;;;;;;;5044937;28;19923;-82
2021/11/05 15:15:07;;;;;;;;;;;;;;;;;;5032858;28;19921;-82
2021/11/05 15:17:32;;;;;;;;;;;;;;;;;;5033128;28;19917;-82
2021/11/05 15:19:57;;;;;;;;;;;;;;;;;;5049619;28;19952;-83
2021/11/05 15:22:23;;;;;;;;;;;;;;;;;;5032535;28;19921;-82
2021/11/05 15:24:48;;;;;;;;;;;;;;;;;;5032829;28;19917;-82
2021/11/05 15:27:13;;;;;;;;;;;;;;;;;;5032663;28;20256;-82
2021/11/05 15:29:38;;;;;;;;;;;;;;;;;;5033957;28;19913;-82
2021/11/05 15:32:04;;;;;;;;;;;;;;;;;;5036100;28;19916;-82
2021/11/05 15:34:33;;;;;;;;;;;;;;;;;;5036134;28;19955;-83
2021/11/05 15:36:58;;;;;;;;;;;;;;;;;;5019767;28;19970;-83
2021/11/05 15:39:24;;;;;;;;;;;;;;;;;;5052530;28;19917;-82
2021/11/05 15:41:49;;;;;;;;;;;;;;;;;;5035678;28;20451;-82
2021/11/05 15:44:14;;;;;;;;;;;;;;;;;;5034132;28;19928;-83
2021/11/05 15:46:40;;;;;;;;;;;;;;;;;;5052274;28;19934;-82
2021/11/05 15:49:05;;;;;;;;;;;;;;;;;;5019021;28;19916;-83
2021/11/05 15:51:30;;;;;;;;;;;;;;;;;;5018826;28;20421;-82
2021/11/05 15:53:56;;;;;;;;;;;;;;;;;;5035737;28;19909;-82
2021/11/05 15:56:21;;;;;;;;;;;;;;;;;;5035493;28;19924;-83
2021/11/05 15:58:46;;;;;;;;;;;;;;;;;;5018313;28;20381;-83
2021/11/05 16:01:12;;;;;;;;;;;;;;;;;;5036024;28;20314;-82
2021/11/05 16:03:38;;;;;;;;;;;;;;;;;;5035384;28;20435;-82
2021/11/05 16:06:05;;;;;;;;;;;;;;;;;;5051861;28;20015;-82
2021/11/05 16:08:30;;;;;;;;;;;;;;;;;;5051748;28;20283;-82
2021/11/05 16:10:55;;;;;;;;;;;;;;;;;;5051942;28;19913;-83
2021/11/05 16:13:21;;;;;;;;;;;;;;;;;;5051719;28;19912;-82
2021/11/05 16:15:46;;;;;;;;;;;;;;;;;;5051900;28;20037;-82
2021/11/05 16:18:11;;;;;;;;;;;;;;;;;;5052059;28;19923;-82
2021/11/05 16:20:37;;;;;;;;;;;;;;;;;;5034448;28;19924;-82
2021/11/05 16:23:03;;;;;;;;;;;;;;;;;;5049490;28;20004;-83
2021/11/05 16:25:28;;;;;;;;;;;;;;;;;;5033652;28;19920;-82
2021/11/05 16:27:54;;;;;;;;;;;;;;;;;;5035059;28;19971;-82
2021/11/05 16:30:19;;;;;;;;;;;;;;;;;;5034857;28;19920;-82
2021/11/05 16:32:45;;;;;;;;;;;;;;;;;;5051585;28;20007;-81
2021/11/05 16:35:11;;;;;;;;;;;;;;;;;;5034933;28;19919;-81
2021/11/05 16:37:37;;;;;;;;;;;;;;;;;;5034990;28;19996;-81
2021/11/05 16:40:03;;;;;;;;;;;;;;;;;;5051165;28;19916;-81
2021/11/05 16:42:29;;;;;;;;;;;;;;;;;;5034355;28;19968;-81